Detroit Lakes, Minnesota
Current Conditions -  °F | °C
As of 1:15 AM on Friday 28 Nov 2014 (Local Time) from KDTL Reporting Station
Light Snow Light Snow  
Wind Chill: -6°   Ceiling: 700
Heat Index:   Visibility: 5mi
Dew Point:   Wind: 12mph
Humidity: 85%   Direction: 140°SE
Pressure: 30.04"   Gusts: NA
Location:  46.82°N, 95.84°W
Report Text: KDTL 280715Z AUTO 14010KT 5SM -SN BKN007 BKN050 M13/M15 A3004 RMK AO2
Loading
Personal Weather Stations






























Interactive Weather Map New forecast layout! Learn more

10-Day Weather Forecast

Advertisements
Track Severe Weather on mobile